ADDS METAR Data INFO
IDs: Format: Raw Decoded Include TAF

Data at: 0937 UTC 25 Jun 2018

KW78 250910Z AUTO 00000KT 10SM SCT070 SCT085 22/20 A3001 RMK AO1 T02150203
KW78 250850Z AUTO 00000KT 10SM BKN070 OVC085 21/20 A3002 RMK AO1 T02130202
KW78 250830Z AUTO 00000KT 10SM BKN070 BKN080 22/20 A3001 RMK AO1 T02160196
KW78 250810Z AUTO 00000KT 10SM SCT075 SCT080 20/19 A3000 RMK AO1 T02000191
KW78 250750Z AUTO 00000KT 10SM SCT075 20/19 A2999 RMK AO1 T01980190
KW78 250730Z AUTO 00000KT 10SM CLR 21/20 A2998 RMK AO1 T02070200
KW78 250710Z AUTO 00000KT 10SM CLR 21/19 A2997 RMK AO1 T02110192
KW78 250650Z AUTO 31003KT 10SM CLR 23/18 A2997 RMK AO1 T02340175
KW78 250630Z AUTO 34006KT 10SM CLR 23/18 A2996 RMK AO1 T02340175
KW78 250610Z AUTO 31005KT 10SM CLR 24/18 A2996 RMK AO1 T02400181
KW78 250550Z AUTO 30005KT 10SM CLR 22/20 A2996 RMK AO1 T02220197
KW78 250530Z AUTO 31003KT 10SM CLR 21/21 A2997 RMK AO1 T02130205
KW78 250510Z AUTO 00000KT 10SM CLR 21/21 A2997 RMK AO1 T02130205
KW78 250450Z AUTO 00000KT 10SM CLR 22/21 A2997 RMK AO1 T02190211
KW78 250430Z AUTO 00000KT 10SM CLR 22/21 A2997 RMK AO1 T02170209
KW78 250410Z AUTO 00000KT 10SM CLR 22/21 A2997 RMK AO1 T02180210
KW78 250350Z AUTO 00000KT 10SM CLR 22/22 A2996 RMK AO1 T02220215
KW78 250330Z AUTO 18003KT 10SM CLR 22/21 A2996 RMK AO1 T02210213
KW78 250310Z AUTO 32004KT 10SM CLR 24/20 A2996 RMK AO1 T02420199
KW78 250250Z AUTO 00000KT 10SM CLR 23/22 A2996 RMK AO1 T02310219
KW78 250230Z AUTO 00000KT 10SM CLR 24/20 A2997 RMK AO1 T02440203
KW78 250210Z AUTO 32004KT 10SM CLR 25/20 A2997 RMK AO1 T02490202
KW78 250150Z AUTO 29003KT 10SM CLR 26/20 A2996 RMK AO1 T02620195
KW78 250130Z AUTO 31004KT 10SM CLR 26/20 A2996 RMK AO1 T02640198
KW78 250110Z AUTO 31003KT 10SM CLR 27/21 A2995 RMK AO1 T02670207
KW78 250050Z AUTO 00000KT 10SM CLR 27/21 A2994 RMK AO1 T02690211
KW78 250030Z AUTO 00000KT 10SM CLR 28/21 A2993 RMK AO1 T02780207
KW78 250010Z AUTO 00000KT 10SM CLR 29/20 A2991 RMK AO1 T02900204
KW78 242350Z AUTO 29003KT 10SM BKN110 30/20 A2991 RMK AO1 T03000196
KW78 242330Z AUTO 28004KT 10SM BKN110 31/20 A2990 RMK AO1 T03070197
KW78 242310Z AUTO 26004KT 10SM CLR 31/20 A2990 RMK AO1 T03100197
KW78 242250Z AUTO 26004KT 10SM CLR 32/20 A2989 RMK AO1 T03160203
KW78 242230Z AUTO 00000KT 10SM SCT070 32/21 A2989 RMK AO1 T03210206
KW78 242210Z AUTO 00000KT 10SM SCT060 SCT090 SCT120 33/22 A2988 RMK AO1 T03280220
KW78 242150Z AUTO 26003KT 10SM SCT060 SCT090 SCT120 33/21 A2988 RMK AO1 T03280209
KW78 242130Z AUTO 25005KT 10SM SCT100 SCT120 32/20 A2988 RMK AO1 T03170199
KW78 242110Z AUTO 25004KT 10SM SCT060 SCT110 33/20 A2988 RMK AO1 T03270199
KW78 242050Z AUTO 23007KT 10SM CLR 33/20 A2988 RMK AO1 T03280204
KW78 242030Z AUTO 22007KT 10SM SCT055 SCT070 33/21 A2988 RMK AO1 T03300207
KW78 242010Z AUTO 22005KT 10SM SCT055 32/20 A2989 RMK AO1 T03240202
KW78 241950Z AUTO 24008KT 210V270 10SM SCT055 32/20 A2989 RMK AO1 T03240200
KW78 241930Z AUTO 25006KT 10SM CLR 33/21 A2989 RMK AO1 T03250206
KW78 241910Z AUTO 26006KT 10SM SCT060 SCT080 32/21 A2990 RMK AO1 T03220205
KW78 241850Z AUTO 23008G15KT 10SM SCT060 SCT080 SCT120 32/21 A2990 RMK AO1 T03210206
KW78 241830Z AUTO 22004KT 10SM SCT049 SCT060 32/21 A2991 RMK AO1 T03170207
KW78 241810Z AUTO 23009G17KT 10SM SCT049 32/20 A2992 RMK AO1 T03180202
KW78 241750Z AUTO 27008G15KT 10SM SCT049 32/21 A2992 RMK AO1 T03170205
KW78 241730Z AUTO 26004KT 10SM CLR 31/21 A2993 RMK AO1 T03140207
KW78 241710Z AUTO 25008KT 10SM CLR 31/20 A2993 RMK AO1 T03100199
KW78 241650Z AUTO 25010KT 10SM CLR 31/20 A2993 RMK AO1 T03080197
KW78 241630Z AUTO 28006KT 10SM CLR 31/20 A2994 RMK AO1 T03070198
KW78 241610Z AUTO 26005KT 10SM CLR 31/19 A2994 RMK AO1 T03050194
KW78 241550Z AUTO 24007KT 210V270 10SM CLR 30/20 A2994 RMK AO1 T02970199
KW78 241530Z AUTO 23007KT 10SM SCT040 29/20 A2994 RMK AO1 T02930201
KW78 241510Z AUTO 23007KT 10SM SCT040 30/20 A2994 RMK AO1 T02950203
KW78 241450Z AUTO 25007KT 10SM CLR 29/20 A2994 RMK AO1 T02930199
KW78 241430Z AUTO 23006KT 10SM CLR 29/20 A2993 RMK AO1 T02870198
KW78 241410Z AUTO 27006KT 10SM CLR 28/20 A2994 RMK AO1 T02800203
KW78 241350Z AUTO 27006KT 10SM CLR 28/21 A2993 RMK AO1 T02780211
KW78 241330Z AUTO 26006KT 10SM CLR 27/22 A2993 RMK AO1 T02720215
KW78 241310Z AUTO 24006KT 10SM CLR 27/22 A2993 RMK AO1 T02660219
KW78 241250Z AUTO 26004KT 10SM CLR 26/22 A2993 RMK AO1 T02620217
KW78 241230Z AUTO 25005KT 10SM CLR 25/22 A2993 RMK AO1 T02540219
KW78 241210Z AUTO 24009G14KT 10SM CLR 25/22 A2994 RMK AO1 T02470219
KW78 241150Z AUTO 24007KT 10SM CLR 24/22 A2993 RMK AO1 T02430221
KW78 241130Z AUTO 23003KT 10SM CLR 24/22 A2992 RMK AO1 T02360221
KW78 241110Z AUTO 00000KT 10SM SCT100 23/22 A2991 RMK AO1 T02270219
KW78 241050Z AUTO 00000KT 10SM BKN100 22/21 A2991 RMK AO1 T02200211
KW78 241030Z AUTO 21003KT 10SM OVC100 22/21 A2990 RMK AO1 T02180210
KW78 241010Z AUTO 00000KT 10SM OVC100 22/21 A2989 RMK AO1 T02210214
KW78 240950Z AUTO 24003KT 10SM OVC100 23/21 A2989 RMK AO1 T02300213
KW78 240930Z AUTO 00000KT 10SM OVC090 23/22 A2988 RMK AO1 T02280216
KW78 240910Z AUTO 00000KT 10SM OVC100 22/21 A2987 RMK AO1 T02210213
KW78 240850Z AUTO 00000KT 10SM OVC100 22/21 A2987 RMK AO1 T02170210
KW78 240830Z AUTO 00000KT 7SM BKN090 OVC120 21/21 A2987 RMK AO1 T02130205
KW78 240810Z AUTO 00000KT 5SM SCT090 OVC120 21/20 A2986 RMK AO1 T02110203
KW78 240750Z AUTO 00000KT 3SM SCT090 OVC120 21/20 A2986 RMK AO1 T02100202
KW78 240730Z AUTO 00000KT 10SM SCT080 SCT120 21/20 A2987 RMK AO1 T02110204
KW78 240710Z AUTO 00000KT 5SM CLR 21/20 A2987 RMK AO1 T02110204
KW78 240650Z AUTO 00000KT 1 1/2SM VV007 21/20 A2987 RMK AO1 T02080200
KW78 240630Z AUTO 00000KT 7SM SCT090 21/21 A2987 RMK AO1 T02140206
KW78 240610Z AUTO 00000KT 5SM BKN080 21/21 A2988 RMK AO1 T02120205
KW78 240550Z AUTO 00000KT 10SM BKN080 22/21 A2987 RMK AO1 T02150207
KW78 240530Z AUTO 00000KT 10SM BKN080 22/21 A2987 RMK AO1 T02170209
KW78 240510Z AUTO 00000KT 10SM CLR 22/21 A2988 RMK AO1 T02170210
KW78 240450Z AUTO 00000KT 10SM CLR 22/21 A2988 RMK AO1 T02160208
KW78 240430Z AUTO 00000KT 10SM CLR 22/21 A2988 RMK AO1 T02170210
KW78 240410Z AUTO 00000KT 10SM CLR 22/21 A2987 RMK AO1 T02190210
KW78 240350Z AUTO 00000KT 10SM CLR 22/21 A2987 RMK AO1 T02210213
KW78 240330Z AUTO 00000KT 10SM CLR 22/21 A2987 RMK AO1 T02180210
KW78 240310Z AUTO 00000KT 10SM CLR 22/21 A2986 RMK AO1 T02210213
KW78 240250Z AUTO 00000KT 10SM CLR 23/22 A2986 RMK AO1 T02260218
KW78 240230Z AUTO 00000KT 10SM CLR 23/22 A2985 RMK AO1 T02290221
KW78 240210Z AUTO 00000KT 10SM CLR 23/22 A2985 RMK AO1 T02320224
KW78 240150Z AUTO 00000KT 10SM CLR 24/23 A2984 RMK AO1 T02370227
KW78 240130Z AUTO 00000KT 10SM CLR 23/23 A2984 RMK AO1 T02340226
KW78 240110Z AUTO 00000KT 10SM CLR 25/23 A2983 RMK AO1 T02450226
KW78 240050Z AUTO 00000KT 10SM CLR 24/23 A2983 RMK AO1 T02440233
KW78 240030Z AUTO 00000KT 10SM SCT110 26/23 A2983 RMK AO1 T02550226
KW78 240010Z AUTO 00000KT 10SM BKN110 27/23 A2983 RMK AO1 T02720226
KW78 232350Z AUTO 00000KT 10SM SCT100 28/22 A2984 RMK AO1 T02820216
KW78 232330Z AUTO 00000KT 10SM CLR 28/21 A2983 RMK AO1 T02800206
KW78 232310Z AUTO 22004KT 10SM CLR 30/20 A2983 RMK AO1 T02950204
KW78 232250Z AUTO 23004KT 10SM SCT048 SCT055 30/20 A2983 RMK AO1 T02960201
KW78 232230Z AUTO 20006KT 10SM SCT048 SCT055 30/20 A2982 RMK AO1 T03000197
KW78 232210Z AUTO 22006KT 10SM SCT048 SCT055 30/20 A2982 RMK AO1 T03020195
KW78 232150Z AUTO 25005KT 10SM CLR 30/19 A2981 RMK AO1 T03040191